Southern Ontario METAR Reports

CYSN - St.Catharines
Updated: 11/16/2018 7:00pm
Overcast
Overcast
 Wind from WSW
Wind: WSW 26 km/h
Temperature: 2°C
Wind Chill: -3°C
Dew Point: 0°C
Humidity: 87%
Barometer: 1010.8 hPa
Clouds: Overcast
Visibility: 13 km
Cloud details: Overcast 488 m
2018/11/17 00:00 CYSN 170000Z 24014KT 8SM OVC016 02/M00 A2985 RMK SC8 SLP115
CYHM - Hamilton
Updated: 11/16/2018 7:30pm
Mist, Overcast
Mist, Overcast
 Wind from WSW
Wind: WSW 20 km/h
Temperature: 1°C
Wind Chill: -4°C
Dew Point: 0°C
Humidity: 93%
Barometer: 1010.8 hPa
Summary: Mist
Clouds: Overcast
Visibility: 10 km
Cloud details: Mostly cloudy 396 m
Overcast 549 m
2018/11/17 00:30 CYHM 170030Z 25011KT 6SM BR BKN013 OVC018 01/M00 A2985 RMK SC7SC1 SLP120
 
CYYZ - Toronto
Updated: 11/16/2018 7:15pm
Light drizzle, Mist, Overcast
Light drizzle, Mist, Overcast
 Wind from WSW
Wind: WSW 20 km/h
Temperature: 1°C
Wind Chill: -4°C
Dew Point: -1°C
Humidity: 87%
Barometer: 1009.8 hPa
Summary: Light drizzle, Mist
Clouds: Overcast
Visibility: 10 km
Cloud details: Partly cloudy 457 m
Overcast 610 m
2018/11/17 00:15 CYYZ 170015Z 24011KT 6SM -DZ BR SCT015 OVC020 01/M01 A2982 RMK SF3SC5 SLP106
CYKF - Waterloo
Updated: 11/16/2018 7:14pm
Mist, Overcast
Mist, Overcast
 Wind from WSW
Wind: WSW 19 km/h, Gust: 31 km/h
Temperature: 1°C
Wind Chill: -4°C
Dew Point: -1°C
Humidity: 87%
Barometer: 1009.8 hPa
Summary: Mist
Clouds: Overcast
Visibility: 10 km
Cloud details: Mostly cloudy 396 m
Overcast 732 m
2018/11/17 00:14 CYKF 170014Z AUTO 25010G17KT 6SM BR BKN013 OVC024 01/M01 A2982 RMK SLP110
 
CYXU - London
Updated: 11/16/2018 7:00pm
Mist, Overcast
Mist, Overcast
 Wind from WSW
Wind: WSW 20 km/h, Gust: 33 km/h
Temperature: 0°C
Wind Chill: -6°C
Dew Point: -1°C
Humidity: 93%
Barometer: 1011.5 hPa
Summary: Mist
Clouds: Overcast
Visibility: 10 km
Cloud details: Few Clouds 183 m
Overcast 396 m
2018/11/17 00:00 CYXU 170000Z 25011G18KT 6SM BR FEW006 OVC013 00/M01 A2987 RMK SF2SC6 SLP126
CYQG - Windsor
Updated: 11/16/2018 7:00pm
Overcast
Overcast
 Wind from WSW
Wind: WSW 20 km/h
Temperature: 3°C
Wind Chill: -2°C
Dew Point: 0°C
Humidity: 81%
Barometer: 1014.9 hPa
Clouds: Overcast
Visibility: 14 km
Cloud details: Overcast 1067 m
2018/11/17 00:00 CYQG 170000Z AUTO 25011KT 9SM OVC035 03/00 A2997 RMK SLP158
 
CYZR - Sarnia
Updated: 11/16/2018 7:00pm
Mist, Overcast
Mist, Overcast
 Wind from W
Wind: W 15 km/h
Temperature: 2°C
Wind Chill: -2°C
Dew Point: 0°C
Humidity: 87%
Barometer: 1013.2 hPa
Summary: Mist
Clouds: Overcast
Visibility: 10 km
Cloud details: Overcast 914 m
2018/11/17 00:00 CYZR 170000Z AUTO 26008KT 6SM BR OVC030 02/00 A2992 RMK PCPN 0.5MM PAST HR SLP141
CYVV - Wiarton
Updated: 11/16/2018 7:13pm
Overcast
Overcast
 Wind from W
Wind: W 19 km/h, Gust: 35 km/h
Temperature: 3°C
Wind Chill: -2°C
Dew Point: 1°C
Humidity: 87%
Barometer: 1007.8 hPa
Clouds: Overcast
Visibility: 19 km
Cloud details: Overcast 671 m
2018/11/17 00:13 CYVV 170013Z 27010G19KT 12SM OVC022 03/01 A2976 RMK SC8 SLP088
 
CYPQ - Peterborough
Updated: 11/16/2018 7:23pm
Light rain, Overcast
Light rain, Overcast
 Wind from WSW
Wind: WSW 19 km/h, Gust: 30 km/h
Temperature: 1°C
Wind Chill: -4°C
Dew Point: 0°C
Humidity: 93%
Barometer: 1007.1 hPa
Summary: Light rain
Clouds: Overcast
Visibility: 11 km
Cloud details: Mostly cloudy 488 m
Overcast 671 m
2018/11/17 00:23 CYPQ 170023Z AUTO 24010G16KT 7SM -RA BKN016 OVC022 01/00 A2974 RMK SLP082
CYTR - Trenton
Updated: 11/16/2018 7:00pm

 
2018/11/17 00:00 CYTR 170000Z CCA 25015KT 8SM BKN014 OVC100 02/00 A2975 RMK SC6AC2 SLP079